createdAt,value
2022-08-08T00:22:25.516Z,121.68
2022-08-08T00:48:02.020Z,119.95
2022-08-08T01:13:43.393Z,120.85
2022-08-08T01:39:05.547Z,122.25
2022-08-08T02:04:15.601Z,122.25
2022-08-08T02:29:46.898Z,121.20
2022-08-08T02:55:23.230Z,123.65
2022-08-08T03:20:28.818Z,118.28
2022-08-08T03:46:05.821Z,123.85
2022-08-08T04:11:03.066Z,124.95
2022-08-08T04:36:16.059Z,123.32
2022-08-08T05:01:21.105Z,123.25
2022-08-08T05:26:28.123Z,132.35
2022-08-08T05:51:48.465Z,132.43
2022-08-08T06:16:57.285Z,130.05
2022-08-08T06:42:14.815Z,134.63
2022-08-08T07:07:24.572Z,132.98
2022-08-08T07:32:29.744Z,132.30
2022-08-08T07:57:44.685Z,132.18
2022-08-08T08:22:53.737Z,138.40
2022-08-08T08:48:00.913Z,138.40
2022-08-08T09:13:11.148Z,139.98
2022-08-08T09:38:24.442Z,137.52
2022-08-08T10:03:39.662Z,134.38
2022-08-08T10:28:53.650Z,134.32
2022-08-08T10:54:00.013Z,137.82
2022-08-08T11:19:06.137Z,136.40
2022-08-08T11:44:15.887Z,135.65
2022-08-08T12:09:40.740Z,138.65
2022-08-08T12:35:04.560Z,142.43
2022-08-08T13:00:34.204Z,134.40
2022-08-08T13:25:43.502Z,141.13
2022-08-08T13:50:53.631Z,144.75
2022-08-08T14:16:16.245Z,134.48
2022-08-08T14:41:53.770Z,137.63
2022-08-08T15:06:45.480Z,136.32
2022-08-08T15:32:17.959Z,137.30
2022-08-08T15:57:15.310Z,136.45
2022-08-08T16:22:29.953Z,134.40
2022-08-08T16:47:44.621Z,139.07
2022-08-08T17:12:52.992Z,134.90
2022-08-08T17:37:57.524Z,129.95
2022-08-08T18:03:08.552Z,131.05
2022-08-08T18:28:16.253Z,134.93
2022-08-08T18:53:46.340Z,135.20
2022-08-08T19:19:02.147Z,131.35
2022-08-08T19:44:12.970Z,129.82
2022-08-08T20:09:32.531Z,127.35
2022-08-08T20:34:47.937Z,127.30
2022-08-08T20:59:59.048Z,136.00
2022-08-08T21:25:06.282Z,129.02
2022-08-08T21:50:17.873Z,125.82
2022-08-08T22:15:21.977Z,128.60
2022-08-08T22:40:26.354Z,127.78
2022-08-08T23:05:38.854Z,125.82
2022-08-08T23:30:54.138Z,125.60
2022-08-08T23:55:59.095Z,125.75
